Terminal Aerodrome Forecast
Issued by NWS

Home | Current Version | Previous Version | Text Only | Print | Product List | Glossary Off
Versions: 1 2 3 4 5 6 7 8 9 10 11 12 13 14 15 16

000
FTUS43 KMPX 152300
TAFAXN
TAF
KAXN 152338Z 1600/1624 35022G32KT 1 1/2SM -SN BR OVC018
      TEMPO 1602/1604 4SM -SN OVC010
     FM160400 35022G28KT P6SM OVC014
     FM161400 34015KT P6SM OVC020
     FM162200 33013KT P6SM BKN028=

USA.gov is the U.S. government's official web portal to all federal, state and local government web resources and services.